sensor_id;sensor_type;location;lat;lon;timestamp;temperature;humidity
53599;DHT22;39485;45.702;11.364;2023-07-29T00:02:10;20.70;99.90
53599;DHT22;39485;45.702;11.364;2023-07-29T00:04:36;20.60;99.90
53599;DHT22;39485;45.702;11.364;2023-07-29T00:07:01;20.60;99.90
53599;DHT22;39485;45.702;11.364;2023-07-29T00:09:27;20.60;99.90
53599;DHT22;39485;45.702;11.364;2023-07-29T00:11:53;20.60;99.90
53599;DHT22;39485;45.702;11.364;2023-07-29T00:14:18;20.50;99.90
53599;DHT22;39485;45.702;11.364;2023-07-29T00:16:44;20.50;99.90
53599;DHT22;39485;45.702;11.364;2023-07-29T00:19:09;20.50;99.90
53599;DHT22;39485;45.702;11.364;2023-07-29T00:21:35;20.50;99.90
53599;DHT22;39485;45.702;11.364;2023-07-29T00:24:01;20.40;99.90
53599;DHT22;39485;45.702;11.364;2023-07-29T00:26:27;20.40;99.90
53599;DHT22;39485;45.702;11.364;2023-07-29T00:28:55;20.40;99.90
53599;DHT22;39485;45.702;11.364;2023-07-29T00:31:21;20.40;99.90
53599;DHT22;39485;45.702;11.364;2023-07-29T00:33:47;20.40;99.90
53599;DHT22;39485;45.702;11.364;2023-07-29T00:36:12;20.40;99.90
53599;DHT22;39485;45.702;11.364;2023-07-29T00:38:38;20.40;99.90
53599;DHT22;39485;45.702;11.364;2023-07-29T00:41:04;20.30;99.90
53599;DHT22;39485;45.702;11.364;2023-07-29T00:43:30;20.30;99.90
53599;DHT22;39485;45.702;11.364;2023-07-29T00:45:56;20.30;99.90
53599;DHT22;39485;45.702;11.364;2023-07-29T00:48:23;20.30;99.90
53599;DHT22;39485;45.702;11.364;2023-07-29T00:50:50;20.30;99.90
53599;DHT22;39485;45.702;11.364;2023-07-29T00:53:16;20.20;99.90
53599;DHT22;39485;45.702;11.364;2023-07-29T00:55:42;20.20;99.90
53599;DHT22;39485;45.702;11.364;2023-07-29T00:58:08;20.20;99.90
53599;DHT22;39485;45.702;11.364;2023-07-29T01:00:34;20.20;99.90
53599;DHT22;39485;45.702;11.364;2023-07-29T01:03:00;20.10;99.90
53599;DHT22;39485;45.702;11.364;2023-07-29T01:05:32;20.10;99.90
53599;DHT22;39485;45.702;11.364;2023-07-29T01:08:00;20.10;99.90
53599;DHT22;39485;45.702;11.364;2023-07-29T01:13:33;20.10;99.90
53599;DHT22;39485;45.702;11.364;2023-07-29T01:16:23;20.10;99.90
53599;DHT22;39485;45.702;11.364;2023-07-29T01:18:52;20.10;99.90
53599;DHT22;39485;45.702;11.364;2023-07-29T01:21:19;20.10;99.90
53599;DHT22;39485;45.702;11.364;2023-07-29T01:23:46;20.10;99.90
53599;DHT22;39485;45.702;11.364;2023-07-29T01:26:12;20.10;99.90
53599;DHT22;39485;45.702;11.364;2023-07-29T01:28:37;20.10;99.90
53599;DHT22;39485;45.702;11.364;2023-07-29T01:31:23;20.00;99.90
53599;DHT22;39485;45.702;11.364;2023-07-29T01:33:57;20.00;99.90
53599;DHT22;39485;45.702;11.364;2023-07-29T01:36:28;20.00;99.90
53599;DHT22;39485;45.702;11.364;2023-07-29T01:38:56;20.00;99.90
53599;DHT22;39485;45.702;11.364;2023-07-29T01:41:22;20.00;99.90
53599;DHT22;39485;45.702;11.364;2023-07-29T01:43:50;20.00;99.90
53599;DHT22;39485;45.702;11.364;2023-07-29T01:46:16;20.00;99.90
53599;DHT22;39485;45.702;11.364;2023-07-29T01:48:42;20.00;99.90
53599;DHT22;39485;45.702;11.364;2023-07-29T01:51:08;19.90;99.90
53599;DHT22;39485;45.702;11.364;2023-07-29T01:53:34;20.00;99.90
53599;DHT22;39485;45.702;11.364;2023-07-29T01:56:01;20.00;99.90
53599;DHT22;39485;45.702;11.364;2023-07-29T01:58:27;19.90;99.90
53599;DHT22;39485;45.702;11.364;2023-07-29T02:00:52;19.90;99.90
53599;DHT22;39485;45.702;11.364;2023-07-29T02:03:18;19.90;99.90
53599;DHT22;39485;45.702;11.364;2023-07-29T02:05:44;19.80;99.90
53599;DHT22;39485;45.702;11.364;2023-07-29T02:08:10;19.90;99.90
53599;DHT22;39485;45.702;11.364;2023-07-29T02:10:36;19.90;99.90
53599;DHT22;39485;45.702;11.364;2023-07-29T02:13:02;19.90;99.90
53599;DHT22;39485;45.702;11.364;2023-07-29T02:15:28;19.90;99.90
53599;DHT22;39485;45.702;11.364;2023-07-29T02:17:54;19.90;99.90
53599;DHT22;39485;45.702;11.364;2023-07-29T02:20:19;19.90;99.90
53599;DHT22;39485;45.702;11.364;2023-07-29T02:22:45;19.90;99.90
53599;DHT22;39485;45.702;11.364;2023-07-29T02:25:11;19.80;99.90
53599;DHT22;39485;45.702;11.364;2023-07-29T02:27:37;19.80;99.90
53599;DHT22;39485;45.702;11.364;2023-07-29T02:30:03;19.80;99.90
53599;DHT22;39485;45.702;11.364;2023-07-29T02:32:29;19.80;99.90
53599;DHT22;39485;45.702;11.364;2023-07-29T02:34:54;19.70;99.90
53599;DHT22;39485;45.702;11.364;2023-07-29T02:37:20;19.70;99.90
53599;DHT22;39485;45.702;11.364;2023-07-29T02:39:46;19.70;99.90
53599;DHT22;39485;45.702;11.364;2023-07-29T02:42:11;19.70;99.90
53599;DHT22;39485;45.702;11.364;2023-07-29T02:44:37;19.60;99.90
53599;DHT22;39485;45.702;11.364;2023-07-29T02:47:03;19.60;99.90
53599;DHT22;39485;45.702;11.364;2023-07-29T02:49:29;19.60;99.90
53599;DHT22;39485;45.702;11.364;2023-07-29T02:51:55;19.60;99.90
53599;DHT22;39485;45.702;11.364;2023-07-29T02:54:20;19.60;99.90
53599;DHT22;39485;45.702;11.364;2023-07-29T02:56:46;19.60;99.90
53599;DHT22;39485;45.702;11.364;2023-07-29T02:59:12;19.60;99.90
53599;DHT22;39485;45.702;11.364;2023-07-29T03:01:37;19.60;99.90
53599;DHT22;39485;45.702;11.364;2023-07-29T03:04:03;19.60;99.90
53599;DHT22;39485;45.702;11.364;2023-07-29T03:06:29;19.60;99.90
53599;DHT22;39485;45.702;11.364;2023-07-29T03:08:55;19.50;99.90
53599;DHT22;39485;45.702;11.364;2023-07-29T03:11:20;19.50;99.90
53599;DHT22;39485;45.702;11.364;2023-07-29T03:13:46;19.50;99.90
53599;DHT22;39485;45.702;11.364;2023-07-29T03:16:14;19.50;99.90
53599;DHT22;39485;45.702;11.364;2023-07-29T03:18:40;19.50;99.90
53599;DHT22;39485;45.702;11.364;2023-07-29T03:21:07;19.50;99.90
53599;DHT22;39485;45.702;11.364;2023-07-29T03:23:33;19.50;99.90
53599;DHT22;39485;45.702;11.364;2023-07-29T03:26:00;19.50;99.90
53599;DHT22;39485;45.702;11.364;2023-07-29T03:28:28;19.50;99.90
53599;DHT22;39485;45.702;11.364;2023-07-29T03:30:55;19.50;99.90
53599;DHT22;39485;45.702;11.364;2023-07-29T03:33:21;19.50;99.90
53599;DHT22;39485;45.702;11.364;2023-07-29T03:35:47;19.50;99.90
53599;DHT22;39485;45.702;11.364;2023-07-29T03:38:13;19.40;99.90
53599;DHT22;39485;45.702;11.364;2023-07-29T03:40:39;19.40;99.90
53599;DHT22;39485;45.702;11.364;2023-07-29T03:43:05;19.40;99.90
53599;DHT22;39485;45.702;11.364;2023-07-29T03:45:31;19.40;99.90
53599;DHT22;39485;45.702;11.364;2023-07-29T03:47:57;19.40;99.90
53599;DHT22;39485;45.702;11.364;2023-07-29T03:50:22;19.40;99.90
53599;DHT22;39485;45.702;11.364;2023-07-29T03:52:48;19.40;99.90
53599;DHT22;39485;45.702;11.364;2023-07-29T03:55:14;19.30;99.90
53599;DHT22;39485;45.702;11.364;2023-07-29T03:57:40;19.30;99.90
53599;DHT22;39485;45.702;11.364;2023-07-29T04:00:06;19.30;99.90
53599;DHT22;39485;45.702;11.364;2023-07-29T04:02:32;19.40;99.90
53599;DHT22;39485;45.702;11.364;2023-07-29T04:04:57;19.40;99.90
53599;DHT22;39485;45.702;11.364;2023-07-29T04:07:23;19.40;99.90
53599;DHT22;39485;45.702;11.364;2023-07-29T04:09:49;19.40;99.90
53599;DHT22;39485;45.702;11.364;2023-07-29T04:12:15;19.30;99.90
53599;DHT22;39485;45.702;11.364;2023-07-29T04:14:41;19.40;99.90
53599;DHT22;39485;45.702;11.364;2023-07-29T04:17:07;19.30;99.90
53599;DHT22;39485;45.702;11.364;2023-07-29T04:19:33;19.40;99.90
53599;DHT22;39485;45.702;11.364;2023-07-29T04:21:59;19.40;99.90
53599;DHT22;39485;45.702;11.364;2023-07-29T04:24:25;19.40;99.90
53599;DHT22;39485;45.702;11.364;2023-07-29T04:26:50;19.40;99.90
53599;DHT22;39485;45.702;11.364;2023-07-29T04:29:16;19.50;99.90
53599;DHT22;39485;45.702;11.364;2023-07-29T04:31:42;19.50;99.90
53599;DHT22;39485;45.702;11.364;2023-07-29T04:34:08;19.50;99.90
53599;DHT22;39485;45.702;11.364;2023-07-29T04:36:34;19.50;99.90
53599;DHT22;39485;45.702;11.364;2023-07-29T04:39:00;19.50;99.90
53599;DHT22;39485;45.702;11.364;2023-07-29T04:41:26;19.60;99.90
53599;DHT22;39485;45.702;11.364;2023-07-29T04:43:51;19.60;99.90
53599;DHT22;39485;45.702;11.364;2023-07-29T04:46:18;19.60;99.90
53599;DHT22;39485;45.702;11.364;2023-07-29T04:48:43;19.60;99.90
53599;DHT22;39485;45.702;11.364;2023-07-29T04:51:09;19.70;99.90
53599;DHT22;39485;45.702;11.364;2023-07-29T04:53:35;19.70;99.90
53599;DHT22;39485;45.702;11.364;2023-07-29T04:56:02;19.70;99.90
53599;DHT22;39485;45.702;11.364;2023-07-29T04:58:28;19.80;99.90
53599;DHT22;39485;45.702;11.364;2023-07-29T05:00:55;19.80;99.90
53599;DHT22;39485;45.702;11.364;2023-07-29T05:03:21;19.90;99.90
53599;DHT22;39485;45.702;11.364;2023-07-29T05:05:47;19.90;99.90
53599;DHT22;39485;45.702;11.364;2023-07-29T05:08:12;19.90;99.90
53599;DHT22;39485;45.702;11.364;2023-07-29T05:10:38;20.00;99.90
53599;DHT22;39485;45.702;11.364;2023-07-29T05:13:04;20.00;99.90
53599;DHT22;39485;45.702;11.364;2023-07-29T05:15:29;19.90;99.90
53599;DHT22;39485;45.702;11.364;2023-07-29T05:17:55;19.90;99.90
53599;DHT22;39485;45.702;11.364;2023-07-29T05:20:21;19.90;99.90
53599;DHT22;39485;45.702;11.364;2023-07-29T05:22:47;19.90;99.90
53599;DHT22;39485;45.702;11.364;2023-07-29T05:25:12;20.00;99.90
53599;DHT22;39485;45.702;11.364;2023-07-29T05:27:38;20.00;99.90
53599;DHT22;39485;45.702;11.364;2023-07-29T05:30:04;20.10;99.90
53599;DHT22;39485;45.702;11.364;2023-07-29T05:32:30;20.10;99.90
53599;DHT22;39485;45.702;11.364;2023-07-29T05:34:56;20.10;99.90
53599;DHT22;39485;45.702;11.364;2023-07-29T05:37:21;20.20;99.90
53599;DHT22;39485;45.702;11.364;2023-07-29T05:39:47;20.20;99.90
53599;DHT22;39485;45.702;11.364;2023-07-29T05:42:13;20.30;99.90
53599;DHT22;39485;45.702;11.364;2023-07-29T05:44:38;20.30;99.90
53599;DHT22;39485;45.702;11.364;2023-07-29T05:47:04;20.40;99.90
53599;DHT22;39485;45.702;11.364;2023-07-29T05:49:30;20.40;99.90
53599;DHT22;39485;45.702;11.364;2023-07-29T05:51:55;20.50;99.90
53599;DHT22;39485;45.702;11.364;2023-07-29T05:54:21;20.60;99.90
53599;DHT22;39485;45.702;11.364;2023-07-29T05:56:47;20.70;99.90
53599;DHT22;39485;45.702;11.364;2023-07-29T05:59:12;20.70;99.90
53599;DHT22;39485;45.702;11.364;2023-07-29T06:01:38;20.80;99.90
53599;DHT22;39485;45.702;11.364;2023-07-29T06:04:04;20.90;99.90
53599;DHT22;39485;45.702;11.364;2023-07-29T06:06:29;21.00;99.90
53599;DHT22;39485;45.702;11.364;2023-07-29T06:08:55;21.00;99.90
53599;DHT22;39485;45.702;11.364;2023-07-29T06:11:21;21.20;99.90
53599;DHT22;39485;45.702;11.364;2023-07-29T06:13:47;21.30;99.90
53599;DHT22;39485;45.702;11.364;2023-07-29T06:16:13;21.30;99.90
53599;DHT22;39485;45.702;11.364;2023-07-29T06:18:39;21.40;99.90
53599;DHT22;39485;45.702;11.364;2023-07-29T06:21:05;21.60;99.90
53599;DHT22;39485;45.702;11.364;2023-07-29T06:23:33;21.60;99.90
53599;DHT22;39485;45.702;11.364;2023-07-29T06:25:59;21.80;99.90
53599;DHT22;39485;45.702;11.364;2023-07-29T06:28:26;21.90;99.90
53599;DHT22;39485;45.702;11.364;2023-07-29T06:30:52;22.00;99.90
53599;DHT22;39485;45.702;11.364;2023-07-29T06:33:18;22.00;99.90
53599;DHT22;39485;45.702;11.364;2023-07-29T06:35:43;22.10;99.90
53599;DHT22;39485;45.702;11.364;2023-07-29T06:38:09;22.20;99.90
53599;DHT22;39485;45.702;11.364;2023-07-29T06:40:35;22.40;99.90
53599;DHT22;39485;45.702;11.364;2023-07-29T06:43:00;22.50;99.90
53599;DHT22;39485;45.702;11.364;2023-07-29T06:45:26;22.70;99.90
53599;DHT22;39485;45.702;11.364;2023-07-29T06:47:52;22.80;99.90
53599;DHT22;39485;45.702;11.364;2023-07-29T06:50:18;23.00;99.90
53599;DHT22;39485;45.702;11.364;2023-07-29T06:52:44;23.10;99.90
53599;DHT22;39485;45.702;11.364;2023-07-29T06:55:10;23.20;99.90
53599;DHT22;39485;45.702;11.364;2023-07-29T06:57:35;23.40;99.90
53599;DHT22;39485;45.702;11.364;2023-07-29T07:00:02;23.50;99.90
53599;DHT22;39485;45.702;11.364;2023-07-29T07:02:28;23.70;99.90
53599;DHT22;39485;45.702;11.364;2023-07-29T07:04:53;23.90;99.90
53599;DHT22;39485;45.702;11.364;2023-07-29T07:07:19;24.00;99.90
53599;DHT22;39485;45.702;11.364;2023-07-29T07:09:45;24.20;99.90
53599;DHT22;39485;45.702;11.364;2023-07-29T07:12:10;24.30;99.90
53599;DHT22;39485;45.702;11.364;2023-07-29T07:14:37;24.40;99.90
53599;DHT22;39485;45.702;11.364;2023-07-29T07:17:02;24.50;99.90
53599;DHT22;39485;45.702;11.364;2023-07-29T07:19:28;24.60;99.90
53599;DHT22;39485;45.702;11.364;2023-07-29T07:21:54;24.70;99.90
53599;DHT22;39485;45.702;11.364;2023-07-29T07:24:19;24.70;99.90
53599;DHT22;39485;45.702;11.364;2023-07-29T07:26:45;24.80;99.90
53599;DHT22;39485;45.702;11.364;2023-07-29T07:29:11;24.90;99.90
53599;DHT22;39485;45.702;11.364;2023-07-29T07:31:36;24.90;99.90
53599;DHT22;39485;45.702;11.364;2023-07-29T07:34:02;24.90;99.90
53599;DHT22;39485;45.702;11.364;2023-07-29T07:36:29;25.00;99.90
53599;DHT22;39485;45.702;11.364;2023-07-29T07:38:54;25.10;99.90
53599;DHT22;39485;45.702;11.364;2023-07-29T07:41:20;25.10;99.90
53599;DHT22;39485;45.702;11.364;2023-07-29T07:43:46;25.20;99.90
53599;DHT22;39485;45.702;11.364;2023-07-29T07:46:12;25.30;99.90
53599;DHT22;39485;45.702;11.364;2023-07-29T07:48:38;25.30;99.90
53599;DHT22;39485;45.702;11.364;2023-07-29T07:51:13;25.40;99.90
53599;DHT22;39485;45.702;11.364;2023-07-29T07:53:39;25.50;99.90
53599;DHT22;39485;45.702;11.364;2023-07-29T07:56:05;25.60;99.90
53599;DHT22;39485;45.702;11.364;2023-07-29T07:58:32;25.60;99.90
53599;DHT22;39485;45.702;11.364;2023-07-29T08:01:02;25.60;99.90
53599;DHT22;39485;45.702;11.364;2023-07-29T08:03:28;25.60;99.90
53599;DHT22;39485;45.702;11.364;2023-07-29T08:05:53;25.70;99.90
53599;DHT22;39485;45.702;11.364;2023-07-29T08:08:19;25.70;99.90
53599;DHT22;39485;45.702;11.364;2023-07-29T08:10:44;25.70;99.90
53599;DHT22;39485;45.702;11.364;2023-07-29T08:13:10;25.80;99.90
53599;DHT22;39485;45.702;11.364;2023-07-29T08:15:36;25.90;99.90
53599;DHT22;39485;45.702;11.364;2023-07-29T08:18:01;25.90;99.90
53599;DHT22;39485;45.702;11.364;2023-07-29T08:20:27;25.90;99.90
53599;DHT22;39485;45.702;11.364;2023-07-29T08:22:53;26.00;99.90
53599;DHT22;39485;45.702;11.364;2023-07-29T08:25:18;26.00;99.90
53599;DHT22;39485;45.702;11.364;2023-07-29T08:27:44;26.10;99.90
53599;DHT22;39485;45.702;11.364;2023-07-29T08:30:10;26.10;99.90
53599;DHT22;39485;45.702;11.364;2023-07-29T08:32:36;26.20;99.90
53599;DHT22;39485;45.702;11.364;2023-07-29T08:35:01;26.30;99.90
53599;DHT22;39485;45.702;11.364;2023-07-29T08:37:27;26.30;99.90
53599;DHT22;39485;45.702;11.364;2023-07-29T08:39:54;26.40;99.90
53599;DHT22;39485;45.702;11.364;2023-07-29T08:42:21;26.40;99.90
53599;DHT22;39485;45.702;11.364;2023-07-29T08:44:49;26.50;99.90
53599;DHT22;39485;45.702;11.364;2023-07-29T08:47:17;26.50;99.90
53599;DHT22;39485;45.702;11.364;2023-07-29T08:49:45;26.50;99.90
53599;DHT22;39485;45.702;11.364;2023-07-29T08:52:12;26.60;99.90
53599;DHT22;39485;45.702;11.364;2023-07-29T08:54:39;26.70;99.90
53599;DHT22;39485;45.702;11.364;2023-07-29T08:57:08;26.70;99.90
53599;DHT22;39485;45.702;11.364;2023-07-29T08:59:34;26.70;99.90
53599;DHT22;39485;45.702;11.364;2023-07-29T09:02:00;26.70;99.90
53599;DHT22;39485;45.702;11.364;2023-07-29T09:04:26;26.70;99.90
53599;DHT22;39485;45.702;11.364;2023-07-29T09:06:54;26.80;99.90
53599;DHT22;39485;45.702;11.364;2023-07-29T09:09:21;26.80;99.90
53599;DHT22;39485;45.702;11.364;2023-07-29T09:11:47;26.90;99.90
53599;DHT22;39485;45.702;11.364;2023-07-29T09:14:13;26.90;99.90
53599;DHT22;39485;45.702;11.364;2023-07-29T11:48:36;28.40;99.90
53599;DHT22;39485;45.702;11.364;2023-07-29T11:51:02;28.50;99.90
53599;DHT22;39485;45.702;11.364;2023-07-29T11:53:29;28.50;99.90
53599;DHT22;39485;45.702;11.364;2023-07-29T11:55:56;28.50;99.90
53599;DHT22;39485;45.702;11.364;2023-07-29T11:58:22;28.50;99.90
53599;DHT22;39485;45.702;11.364;2023-07-29T12:00:48;28.50;99.70
53599;DHT22;39485;45.702;11.364;2023-07-29T12:03:14;28.50;99.90
53599;DHT22;39485;45.702;11.364;2023-07-29T12:05:41;28.50;99.60
53599;DHT22;39485;45.702;11.364;2023-07-29T12:08:08;28.50;99.50
53599;DHT22;39485;45.702;11.364;2023-07-29T12:10:34;28.60;99.60
53599;DHT22;39485;45.702;11.364;2023-07-29T12:13:02;28.60;99.60
53599;DHT22;39485;45.702;11.364;2023-07-29T12:15:29;28.70;99.70
53599;DHT22;39485;45.702;11.364;2023-07-29T12:17:59;28.70;99.50
53599;DHT22;39485;45.702;11.364;2023-07-29T12:20:26;28.70;99.60
53599;DHT22;39485;45.702;11.364;2023-07-29T12:22:54;28.70;99.70
53599;DHT22;39485;45.702;11.364;2023-07-29T12:25:20;28.80;99.60
53599;DHT22;39485;45.702;11.364;2023-07-29T12:27:46;28.70;99.30
53599;DHT22;39485;45.702;11.364;2023-07-29T12:30:12;28.60;99.40
53599;DHT22;39485;45.702;11.364;2023-07-29T12:32:47;28.60;99.60
53599;DHT22;39485;45.702;11.364;2023-07-29T12:35:13;28.60;99.80
53599;DHT22;39485;45.702;11.364;2023-07-29T12:37:39;28.60;99.50
53599;DHT22;39485;45.702;11.364;2023-07-29T12:40:20;28.50;99.40
53599;DHT22;39485;45.702;11.364;2023-07-29T12:42:46;28.60;99.80
53599;DHT22;39485;45.702;11.364;2023-07-29T12:45:11;28.60;99.90
53599;DHT22;39485;45.702;11.364;2023-07-29T12:47:37;28.60;99.90
53599;DHT22;39485;45.702;11.364;2023-07-29T12:50:03;28.60;99.90
53599;DHT22;39485;45.702;11.364;2023-07-29T12:52:28;28.70;99.70
53599;DHT22;39485;45.702;11.364;2023-07-29T12:54:54;28.70;99.80
53599;DHT22;39485;45.702;11.364;2023-07-29T12:57:20;28.70;99.70
53599;DHT22;39485;45.702;11.364;2023-07-29T12:59:45;28.70;99.90
53599;DHT22;39485;45.702;11.364;2023-07-29T13:02:11;28.80;99.90
53599;DHT22;39485;45.702;11.364;2023-07-29T13:04:37;28.70;99.50
53599;DHT22;39485;45.702;11.364;2023-07-29T13:07:02;28.70;99.70
53599;DHT22;39485;45.702;11.364;2023-07-29T13:09:28;28.80;99.80
53599;DHT22;39485;45.702;11.364;2023-07-29T13:11:54;28.70;99.70
53599;DHT22;39485;45.702;11.364;2023-07-29T13:14:19;28.70;99.60
53599;DHT22;39485;45.702;11.364;2023-07-29T13:16:45;28.70;99.50
53599;DHT22;39485;45.702;11.364;2023-07-29T13:19:11;28.70;99.60
53599;DHT22;39485;45.702;11.364;2023-07-29T13:21:36;28.60;99.50
53599;DHT22;39485;45.702;11.364;2023-07-29T13:24:02;28.60;99.50
53599;DHT22;39485;45.702;11.364;2023-07-29T13:26:28;28.60;99.50
53599;DHT22;39485;45.702;11.364;2023-07-29T13:28:53;28.50;99.50
53599;DHT22;39485;45.702;11.364;2023-07-29T13:31:21;28.40;99.60
53599;DHT22;39485;45.702;11.364;2023-07-29T13:33:47;28.40;99.80
53599;DHT22;39485;45.702;11.364;2023-07-29T13:36:12;28.30;99.70
53599;DHT22;39485;45.702;11.364;2023-07-29T13:38:38;28.30;99.70
53599;DHT22;39485;45.702;11.364;2023-07-29T13:41:04;28.30;99.90
53599;DHT22;39485;45.702;11.364;2023-07-29T15:07:11;28.00;99.90
53599;DHT22;39485;45.702;11.364;2023-07-29T15:10:25;28.10;99.90
53599;DHT22;39485;45.702;11.364;2023-07-29T15:44:41;28.30;99.30
53599;DHT22;39485;45.702;11.364;2023-07-29T15:57:20;28.70;98.50
53599;DHT22;39485;45.702;11.364;2023-07-29T15:59:46;28.70;98.20
53599;DHT22;39485;45.702;11.364;2023-07-29T16:02:12;28.70;98.20
53599;DHT22;39485;45.702;11.364;2023-07-29T16:04:38;28.70;98.10
53599;DHT22;39485;45.702;11.364;2023-07-29T16:07:07;28.70;98.30
53599;DHT22;39485;45.702;11.364;2023-07-29T16:09:32;28.70;98.10
53599;DHT22;39485;45.702;11.364;2023-07-29T16:15:45;28.80;98.20
53599;DHT22;39485;45.702;11.364;2023-07-29T16:18:31;28.80;98.00
53599;DHT22;39485;45.702;11.364;2023-07-29T16:20:57;28.80;97.80
53599;DHT22;39485;45.702;11.364;2023-07-29T16:23:31;28.80;97.70
53599;DHT22;39485;45.702;11.364;2023-07-29T16:25:58;28.80;97.50
53599;DHT22;39485;45.702;11.364;2023-07-29T16:32:07;28.70;97.50
53599;DHT22;39485;45.702;11.364;2023-07-29T16:34:37;28.70;97.70
53599;DHT22;39485;45.702;11.364;2023-07-29T16:37:08;28.60;97.90
53599;DHT22;39485;45.702;11.364;2023-07-29T16:39:35;28.60;97.80
53599;DHT22;39485;45.702;11.364;2023-07-29T16:42:01;28.50;97.90
53599;DHT22;39485;45.702;11.364;2023-07-29T16:44:27;28.50;98.10
53599;DHT22;39485;45.702;11.364;2023-07-29T16:46:53;28.50;98.40
53599;DHT22;39485;45.702;11.364;2023-07-29T16:49:22;28.50;98.30
53599;DHT22;39485;45.702;11.364;2023-07-29T16:51:51;28.40;98.40
53599;DHT22;39485;45.702;11.364;2023-07-29T16:54:16;28.40;98.40
53599;DHT22;39485;45.702;11.364;2023-07-29T16:56:46;28.30;98.60
53599;DHT22;39485;45.702;11.364;2023-07-29T17:02:20;28.20;99.10
53599;DHT22;39485;45.702;11.364;2023-07-29T17:14:40;28.00;99.20
53599;DHT22;39485;45.702;11.364;2023-07-29T17:17:07;28.00;99.30
53599;DHT22;39485;45.702;11.364;2023-07-29T17:22:53;28.00;99.30
53599;DHT22;39485;45.702;11.364;2023-07-29T17:25:19;28.10;99.30
53599;DHT22;39485;45.702;11.364;2023-07-29T17:27:46;28.10;99.20
53599;DHT22;39485;45.702;11.364;2023-07-29T17:30:12;28.10;99.20
53599;DHT22;39485;45.702;11.364;2023-07-29T17:32:37;28.10;99.20
53599;DHT22;39485;45.702;11.364;2023-07-29T17:35:03;28.10;99.50
53599;DHT22;39485;45.702;11.364;2023-07-29T17:37:29;28.10;99.50
53599;DHT22;39485;45.702;11.364;2023-07-29T17:40:16;28.10;99.50
53599;DHT22;39485;45.702;11.364;2023-07-29T17:46:11;28.00;99.80
53599;DHT22;39485;45.702;11.364;2023-07-29T18:20:09;26.90;99.90
53599;DHT22;39485;45.702;11.364;2023-07-29T18:22:35;26.70;99.90
53599;DHT22;39485;45.702;11.364;2023-07-29T18:25:01;26.60;99.90
53599;DHT22;39485;45.702;11.364;2023-07-29T18:27:26;26.60;99.90
53599;DHT22;39485;45.702;11.364;2023-07-29T18:33:17;26.40;99.90
53599;DHT22;39485;45.702;11.364;2023-07-29T18:35:43;26.30;99.90
53599;DHT22;39485;45.702;11.364;2023-07-29T18:38:09;26.20;99.90
53599;DHT22;39485;45.702;11.364;2023-07-29T18:40:35;26.00;99.90
53599;DHT22;39485;45.702;11.364;2023-07-29T18:43:00;26.00;99.90
53599;DHT22;39485;45.702;11.364;2023-07-29T18:45:26;25.90;99.90
53599;DHT22;39485;45.702;11.364;2023-07-29T18:48:02;25.80;99.90
53599;DHT22;39485;45.702;11.364;2023-07-29T18:50:28;25.80;99.90
53599;DHT22;39485;45.702;11.364;2023-07-29T18:56:40;25.60;99.90
53599;DHT22;39485;45.702;11.364;2023-07-29T18:59:07;25.50;99.90
53599;DHT22;39485;45.702;11.364;2023-07-29T19:05:01;25.40;99.90
53599;DHT22;39485;45.702;11.364;2023-07-29T19:07:27;25.30;99.90
53599;DHT22;39485;45.702;11.364;2023-07-29T19:09:55;25.20;99.90
53599;DHT22;39485;45.702;11.364;2023-07-29T19:13:01;25.10;99.90
53599;DHT22;39485;45.702;11.364;2023-07-29T19:15:30;25.10;99.90
53599;DHT22;39485;45.702;11.364;2023-07-29T19:18:18;25.00;99.90
53599;DHT22;39485;45.702;11.364;2023-07-29T19:24:34;24.80;99.90
53599;DHT22;39485;45.702;11.364;2023-07-29T19:28:02;24.80;99.90
53599;DHT22;39485;45.702;11.364;2023-07-29T19:31:16;24.70;99.90
53599;DHT22;39485;45.702;11.364;2023-07-29T20:08:44;24.20;99.90
53599;DHT22;39485;45.702;11.364;2023-07-29T20:11:53;24.30;99.90
53599;DHT22;39485;45.702;11.364;2023-07-29T20:15:09;24.20;99.90
53599;DHT22;39485;45.702;11.364;2023-07-29T20:27:42;24.20;99.90
53599;DHT22;39485;45.702;11.364;2023-07-29T20:30:26;24.20;99.90
53599;DHT22;39485;45.702;11.364;2023-07-29T22:20:02;23.50;99.90
53599;DHT22;39485;45.702;11.364;2023-07-29T22:22:28;23.50;99.90
53599;DHT22;39485;45.702;11.364;2023-07-29T22:24:53;23.50;99.90
53599;DHT22;39485;45.702;11.364;2023-07-29T22:27:19;23.40;99.90
53599;DHT22;39485;45.702;11.364;2023-07-29T22:34:56;23.50;99.90
53599;DHT22;39485;45.702;11.364;2023-07-29T22:37:21;23.40;99.90
53599;DHT22;39485;45.702;11.364;2023-07-29T22:39:47;23.40;99.90
53599;DHT22;39485;45.702;11.364;2023-07-29T22:42:13;23.40;99.90
53599;DHT22;39485;45.702;11.364;2023-07-29T22:44:39;23.50;99.90
53599;DHT22;39485;45.702;11.364;2023-07-29T22:47:05;23.50;99.90
53599;DHT22;39485;45.702;11.364;2023-07-29T22:49:31;23.50;99.90
53599;DHT22;39485;45.702;11.364;2023-07-29T22:51:56;23.60;99.90
53599;DHT22;39485;45.702;11.364;2023-07-29T22:54:22;23.50;99.90
53599;DHT22;39485;45.702;11.364;2023-07-29T22:56:48;23.60;99.90
53599;DHT22;39485;45.702;11.364;2023-07-29T22:59:13;23.60;99.90
53599;DHT22;39485;45.702;11.364;2023-07-29T23:01:39;23.60;99.90
53599;DHT22;39485;45.702;11.364;2023-07-29T23:04:05;23.60;99.90
53599;DHT22;39485;45.702;11.364;2023-07-29T23:06:30;23.60;99.90
53599;DHT22;39485;45.702;11.364;2023-07-29T23:08:56;23.50;99.90
53599;DHT22;39485;45.702;11.364;2023-07-29T23:11:22;23.50;99.90
53599;DHT22;39485;45.702;11.364;2023-07-29T23:13:47;23.40;99.90
53599;DHT22;39485;45.702;11.364;2023-07-29T23:16:13;23.40;99.90
53599;DHT22;39485;45.702;11.364;2023-07-29T23:18:39;23.40;99.90
53599;DHT22;39485;45.702;11.364;2023-07-29T23:21:04;23.40;99.90
53599;DHT22;39485;45.702;11.364;2023-07-29T23:23:30;23.40;99.90
53599;DHT22;39485;45.702;11.364;2023-07-29T23:25:56;23.40;99.90
53599;DHT22;39485;45.702;11.364;2023-07-29T23:28:21;23.40;99.90
53599;DHT22;39485;45.702;11.364;2023-07-29T23:30:47;23.30;99.90
53599;DHT22;39485;45.702;11.364;2023-07-29T23:33:13;23.30;99.90
53599;DHT22;39485;45.702;11.364;2023-07-29T23:35:38;23.30;99.90
53599;DHT22;39485;45.702;11.364;2023-07-29T23:38:04;23.30;99.90
53599;DHT22;39485;45.702;11.364;2023-07-29T23:40:29;23.20;99.90
53599;DHT22;39485;45.702;11.364;2023-07-29T23:42:55;23.10;99.90
53599;DHT22;39485;45.702;11.364;2023-07-29T23:45:21;23.10;99.90
53599;DHT22;39485;45.702;11.364;2023-07-29T23:47:46;23.00;99.90